Time;durP1;ratioP1;P1;durP2;ratioP2;P2;SDS_P1;SDS_P2;PMS_P1;PMS_P2;Temp;Humidity;BMP_temperature;BMP_pressure;BME280_temperature;BME280_humidity;BME280_pressure;Samples;Min_cycle;Max_cycle;Signal;HPM_P1;HPM_P2
2021/01/04 00:00:01;;;;;;;2.85;1.85;;;1.10;98.70;;;;;;4174910;28;20057;-92
2021/01/04 00:02:06;;;;;;;;;;;1.20;98.70;;;;;;4177579;28;20069;-92
2021/01/04 00:04:23;;;;;;;1.80;1.40;;;1.20;98.70;;;;;;4174916;28;19997;-92
2021/01/04 00:06:37;;;;;;;1.73;1.63;;;1.20;98.80;;;;;;4175329;28;20057;-92
2021/01/04 00:08:48;;;;;;;1.30;1.27;;;1.20;98.80;;;;;;4174163;28;20136;-93
2021/01/04 00:11:25;;;;;;;2.20;2.00;;;1.20;98.50;;;;;;4177338;28;20154;-92
2021/01/04 00:13:35;;;;;;;1.98;1.88;;;1.10;98.70;;;;;;4172585;28;20132;-92
2021/01/04 00:15:42;;;;;;;1.52;1.27;;;1.10;99.00;;;;;;4143719;28;20495;-91
2021/01/04 00:17:55;;;;;;;4.95;2.03;;;1.10;98.90;;;;;;4159215;28;20121;-91
2021/01/04 00:20:00;;;;;;;4.40;2.35;;;1.10;99.10;;;;;;4187532;28;20045;-92
2021/01/04 00:22:17;;;;;;;1.50;1.25;;;1.10;99.10;;;;;;4175345;28;20155;-91
2021/01/04 00:24:34;;;;;;;6.22;2.10;;;1.10;98.60;;;;;;4191950;28;20117;-90
2021/01/04 00:26:38;;;;;;;2.40;1.75;;;1.10;98.80;;;;;;4191168;28;20064;-93
2021/01/04 00:28:39;;;;;;;2.88;2.50;;;1.10;98.80;;;;;;4171499;28;20157;-92
2021/01/04 00:31:01;;;;;;;1.70;1.13;;;1.20;99.00;;;;;;4142870;28;20539;-92
2021/01/04 00:33:09;;;;;;;2.65;0.80;;;1.10;99.10;;;;;;4159743;28;20053;-92
2021/01/04 00:35:13;;;;;;;2.80;1.90;;;1.10;99.10;;;;;;4183726;28;20087;-92
2021/01/04 00:37:51;;;;;;;2.42;2.22;;;1.20;98.90;;;;;;4179827;28;20112;-92
2021/01/04 00:40:25;;;;;;;1.33;1.23;;;1.20;99.00;;;;;;4177441;28;20125;-92
2021/01/04 00:42:43;;;;;;;0.63;0.63;;;1.20;98.80;;;;;;4146159;28;20057;-92
2021/01/04 00:45:03;;;;;;;;;;;1.20;98.50;;;;;;4191725;28;20112;-91
2021/01/04 00:47:21;;;;;;;3.63;2.38;;;1.30;98.40;;;;;;4174249;28;20344;-92
2021/01/04 00:49:32;;;;;;;1.75;1.50;;;1.30;98.20;;;;;;4192797;28;20127;-91
2021/01/04 00:51:37;;;;;;;1.42;1.33;;;1.30;98.10;;;;;;4189960;28;20060;-91
2021/01/04 00:53:47;;;;;;;2.65;1.83;;;1.30;98.00;;;;;;4173164;28;20049;-92
2021/01/04 00:56:06;;;;;;;3.63;1.90;;;1.30;98.30;;;;;;4166213;28;20045;-92
2021/01/04 00:58:28;;;;;;;5.05;1.77;;;1.40;98.10;;;;;;4170044;28;20085;-92
2021/01/04 01:00:35;;;;;;;0.70;0.70;;;1.40;98.20;;;;;;4173921;28;20582;-92
2021/01/04 01:03:05;;;;;;;1.20;1.08;;;1.40;98.30;;;;;;4153618;28;20054;-92
2021/01/04 01:05:36;;;;;;;1.02;0.70;;;1.50;98.10;;;;;;4173956;28;20045;-92
2021/01/04 01:07:55;;;;;;;11.18;2.65;;;1.50;98.00;;;;;;4120648;28;20061;-92
2021/01/04 01:09:57;;;;;;;1.55;1.45;;;1.50;97.90;;;;;;4111599;28;20047;-92
2021/01/04 01:12:13;;;;;;;2.22;2.05;;;1.50;97.80;;;;;;4101074;29;20461;-92
2021/01/04 01:14:56;;;;;;;3.03;1.85;;;1.50;98.20;;;;;;4103153;28;20055;-93
2021/01/04 01:17:02;;;;;;;1.65;0.80;;;1.50;98.20;;;;;;4091642;29;20576;-92
2021/01/04 01:19:15;;;;;;;7.32;1.85;;;1.40;98.50;;;;;;4083525;29;20079;-92
2021/01/04 01:21:16;;;;;;;12.68;2.55;;;1.40;98.50;;;;;;4070980;29;20061;-92
2021/01/04 01:23:22;;;;;;;3.83;1.77;;;1.40;98.40;;;;;;4091615;29;20054;-91
2021/01/04 01:25:32;;;;;;;5.05;1.65;;;1.50;98.10;;;;;;4077274;29;20051;-92
2021/01/04 01:27:56;;;;;;;1.67;1.30;;;1.50;97.80;;;;;;4068083;29;20135;-92
2021/01/04 01:30:16;;;;;;;1.55;1.38;;;1.60;97.70;;;;;;4087778;29;20047;-92
2021/01/04 01:32:36;;;;;;;1.27;1.23;;;1.60;97.70;;;;;;4086373;29;20524;-93
2021/01/04 01:34:48;;;;;;;2.70;2.00;;;1.60;98.00;;;;;;4088010;29;20043;-93
2021/01/04 01:37:27;;;;;;;1.40;1.30;;;1.50;98.10;;;;;;4068092;29;20060;-93
2021/01/04 01:39:43;;;;;;;5.35;1.35;;;1.50;97.90;;;;;;4098861;29;20063;-94
2021/01/04 01:42:03;;;;;;;1.55;1.35;;;1.50;97.90;;;;;;4103810;28;20054;-93
2021/01/04 01:44:23;;;;;;;1.08;1.05;;;1.50;97.80;;;;;;4099821;28;20044;-93
2021/01/04 01:46:31;;;;;;;2.92;2.63;;;1.50;98.10;;;;;;4122611;28;20046;-93
2021/01/04 01:48:58;;;;;;;1.65;1.55;;;1.40;98.20;;;;;;4131925;28;20078;-92
2021/01/04 01:51:24;;;;;;;3.20;2.60;;;1.40;98.30;;;;;;4101175;28;20059;-92
2021/01/04 01:53:30;;;;;;;1.83;1.48;;;1.40;98.40;;;;;;4108636;28;20050;-93
2021/01/04 01:55:36;;;;;;;1.55;1.00;;;1.40;98.40;;;;;;4147509;28;20081;-90
2021/01/04 01:58:19;;;;;;;4.38;2.28;;;1.50;98.50;;;;;;4196687;28;20112;-90
2021/01/04 02:00:41;;;;;;;2.03;1.65;;;1.40;98.40;;;;;;4178951;28;20116;-92
2021/01/04 02:03:00;;;;;;;1.38;0.82;;;1.40;98.00;;;;;;4152539;28;20050;-92
2021/01/04 02:05:04;;;;;;;3.22;1.55;;;1.30;97.70;;;;;;4153304;28;20049;-92
2021/01/04 02:07:09;;;;;;;1.48;1.27;;;1.30;97.80;;;;;;4164271;28;20080;-92
2021/01/04 02:09:15;;;;;;;0.75;0.73;;;1.30;97.40;;;;;;4148324;28;20056;-93
2021/01/04 02:11:34;;;;;;;1.92;1.70;;;1.30;97.60;;;;;;4144812;28;20137;-93
2021/01/04 02:13:43;;;;;;;3.67;2.03;;;1.30;97.50;;;;;;4149232;28;20525;-92
2021/01/04 02:15:54;;;;;;;1.80;1.70;;;1.30;97.90;;;;;;4131967;28;20077;-92
2021/01/04 02:18:11;;;;;;;0.75;0.75;;;1.20;98.00;;;;;;4146865;28;20156;-92
2021/01/04 02:20:34;;;;;;;1.58;1.02;;;1.20;97.90;;;;;;4162547;28;20049;-93
2021/01/04 02:22:52;;;;;;;2.78;0.75;;;1.20;98.20;;;;;;4159395;28;20050;-93
2021/01/04 02:24:53;;;;;;;1.20;1.10;;;1.20;98.30;;;;;;4147872;28;20064;-93
2021/01/04 02:27:19;;;;;;;3.13;2.33;;;1.30;98.20;;;;;;4131418;28;20142;-92
2021/01/04 02:29:20;;;;;;;3.22;1.42;;;1.30;98.30;;;;;;4155984;28;20144;-93
2021/01/04 02:31:23;;;;;;;4.35;1.13;;;1.30;98.50;;;;;;4128350;28;20054;-92
2021/01/04 02:33:32;;;;;;;3.63;3.15;;;1.30;98.60;;;;;;4163051;28;20493;-94
2021/01/04 02:35:36;;;;;;;2.15;0.98;;;1.30;98.60;;;;;;4133298;28;20050;-92
2021/01/04 02:37:37;;;;;;;1.58;1.48;;;1.30;98.70;;;;;;4166428;28;20532;-94
2021/01/04 02:39:54;;;;;;;3.90;1.90;;;1.30;98.80;;;;;;4163497;28;20128;-91
2021/01/04 02:42:05;;;;;;;1.30;1.23;;;1.20;99.00;;;;;;4147981;28;20061;-92
2021/01/04 02:44:07;;;;;;;1.58;1.48;;;1.30;98.90;;;;;;4143904;28;20388;-92
2021/01/04 02:46:10;;;;;;;1.35;1.10;;;1.30;98.90;;;;;;4165927;28;20069;-92
2021/01/04 02:48:12;;;;;;;1.05;1.05;;;1.30;98.80;;;;;;4180691;28;20106;-90
2021/01/04 02:50:25;;;;;;;3.20;2.17;;;1.30;99.00;;;;;;4181875;28;20036;-90
2021/01/04 02:53:07;;;;;;;9.07;2.17;;;1.30;98.90;;;;;;4166590;28;20108;-91
2021/01/04 02:55:14;;;;;;;4.97;2.60;;;1.30;99.00;;;;;;4147407;28;20125;-93
2021/01/04 02:57:19;;;;;;;1.60;1.50;;;1.20;99.00;;;;;;4131548;28;20058;-93
2021/01/04 02:59:48;;;;;;;0.82;0.82;;;1.20;99.00;;;;;;4172010;28;20045;-92
2021/01/04 03:01:52;;;;;;;1.52;1.42;;;1.30;99.10;;;;;;4148049;28;20053;-90
2021/01/04 03:03:53;;;;;;;2.97;2.67;;;1.20;99.10;;;;;;4151904;28;20053;-92
2021/01/04 03:05:58;;;;;;;5.43;1.20;;;1.30;99.10;;;;;;4149700;28;20057;-92
2021/01/04 03:08:01;;;;;;;3.03;2.15;;;1.30;99.00;;;;;;4157527;28;20512;-91
2021/01/04 03:10:24;;;;;;;2.75;1.70;;;1.20;99.10;;;;;;4166066;28;20041;-92
2021/01/04 03:12:30;;;;;;;1.73;1.63;;;1.30;99.00;;;;;;4183410;28;20505;-92
2021/01/04 03:14:43;;;;;;;2.83;1.42;;;1.30;99.00;;;;;;4150320;28;20063;-92
2021/01/04 03:17:07;;;;;;;2.50;1.73;;;1.30;99.00;;;;;;4148269;28;20073;-93
2021/01/04 03:19:13;;;;;;;1.00;0.95;;;1.30;99.00;;;;;;4153196;28;20103;-92
2021/01/04 03:21:15;;;;;;;4.68;2.85;;;1.30;98.90;;;;;;4134475;28;20081;-91
2021/01/04 03:23:16;;;;;;;0.93;0.93;;;1.30;98.80;;;;;;4158336;28;20046;-92
2021/01/04 03:25:50;;;;;;;1.20;1.20;;;1.20;99.00;;;;;;4138066;28;20054;-92
2021/01/04 03:27:51;;;;;;;0.88;0.88;;;1.20;99.10;;;;;;4152092;28;20061;-93
2021/01/04 03:29:53;;;;;;;3.88;1.38;;;1.30;99.10;;;;;;4150494;28;20129;-92
2021/01/04 03:31:54;;;;;;;2.10;1.83;;;1.20;99.20;;;;;;4143137;28;20141;-92
2021/01/04 03:33:56;;;;;;;4.82;2.47;;;1.20;99.30;;;;;;4149760;28;20105;-93
2021/01/04 03:35:57;;;;;;;5.32;2.15;;;1.20;99.40;;;;;;4166141;28;20421;-93
2021/01/04 03:37:58;;;;;;;3.20;2.85;;;1.20;99.30;;;;;;4171473;28;20398;-92
2021/01/04 03:40:00;;;;;;;3.13;2.72;;;1.20;99.20;;;;;;4149726;28;20069;-92
2021/01/04 03:42:01;;;;;;;1.75;1.58;;;1.20;99.40;;;;;;4150544;28;20054;-92
2021/01/04 03:44:03;;;;;;;3.17;1.98;;;1.20;99.50;;;;;;4143998;28;20469;-92
2021/01/04 03:46:05;;;;;;;1.52;1.20;;;1.20;99.40;;;;;;4133672;28;20097;-93
2021/01/04 03:48:06;;;;;;;1.23;1.13;;;1.20;99.40;;;;;;4133963;28;20058;-92
2021/01/04 03:50:08;;;;;;;1.83;1.45;;;1.20;99.40;;;;;;4173755;28;20045;-92
2021/01/04 03:52:10;;;;;;;1.85;1.52;;;1.20;99.50;;;;;;4150721;28;20532;-92
2021/01/04 03:54:11;;;;;;;1.92;1.70;;;1.20;99.50;;;;;;4134844;28;20116;-92
2021/01/04 03:56:16;;;;;;;5.00;2.47;;;1.20;99.60;;;;;;4150730;28;20144;-92
2021/01/04 03:58:17;;;;;;;2.90;2.00;;;1.20;99.40;;;;;;4130406;28;20526;-92
2021/01/04 04:00:19;;;;;;;6.30;1.73;;;1.20;99.40;;;;;;4135060;28;20141;-92
2021/01/04 04:02:20;;;;;;;3.17;2.85;;;1.20;99.30;;;;;;4134128;28;20046;-93
2021/01/04 04:04:22;;;;;;;1.80;1.55;;;1.20;99.30;;;;;;4133044;28;20046;-92
2021/01/04 04:06:26;;;;;;;0.90;0.90;;;1.20;99.20;;;;;;4133862;28;20054;-92
2021/01/04 04:08:27;;;;;;;6.47;2.03;;;1.20;99.10;;;;;;4152948;28;20101;-93
2021/01/04 04:10:28;;;;;;;1.85;1.42;;;1.20;99.00;;;;;;4156696;28;20057;-93
2021/01/04 04:12:30;;;;;;;2.72;1.95;;;1.20;99.20;;;;;;4133352;28;20109;-92
2021/01/04 04:14:31;;;;;;;2.53;1.63;;;1.30;99.10;;;;;;4132100;28;20062;-92
2021/01/04 04:16:32;;;;;;;3.33;2.22;;;1.20;99.20;;;;;;4153976;28;20041;-92
2021/01/04 04:18:34;;;;;;;2.00;1.83;;;1.10;99.10;;;;;;4149857;28;20056;-92
2021/01/04 04:20:35;;;;;;;1.52;1.08;;;1.20;99.30;;;;;;4154664;28;20109;-92
2021/01/04 04:22:36;;;;;;;1.20;1.10;;;1.20;99.20;;;;;;4134584;28;20061;-92
2021/01/04 04:24:39;;;;;;;0.98;0.82;;;1.20;99.20;;;;;;4150158;28;20050;-93
2021/01/04 04:26:40;;;;;;;2.40;2.03;;;1.30;99.10;;;;;;4172055;28;20067;-92
2021/01/04 04:28:42;;;;;;;1.75;1.52;;;1.20;99.00;;;;;;4156003;28;20053;-93
2021/01/04 04:30:43;;;;;;;2.60;2.45;;;1.20;99.10;;;;;;4148394;28;20077;-92
2021/01/04 04:32:44;;;;;;;1.30;1.30;;;1.20;99.20;;;;;;4151547;28;20054;-93
2021/01/04 04:34:45;;;;;;;1.05;1.00;;;1.20;99.30;;;;;;4172041;28;20045;-93
2021/01/04 04:36:46;;;;;;;1.60;1.50;;;1.20;99.20;;;;;;4165005;28;20053;-92
2021/01/04 04:38:48;;;;;;;2.15;1.95;;;1.20;99.20;;;;;;4147193;28;20132;-92
2021/01/04 04:40:49;;;;;;;0.60;0.60;;;1.20;99.10;;;;;;4174094;28;20048;-93
2021/01/04 04:42:55;;;;;;;0.65;0.65;;;1.20;99.20;;;;;;4166694;28;20061;-93
2021/01/04 04:45:05;;;;;;;6.38;1.85;;;1.10;99.20;;;;;;4150021;28;20054;-92
2021/01/04 04:47:18;;;;;;;0.85;0.85;;;1.20;99.30;;;;;;4169929;28;20120;-92
2021/01/04 04:49:31;;;;;;;0.60;0.60;;;1.20;99.40;;;;;;4139063;28;20066;-92
2021/01/04 04:51:53;;;;;;;2.35;1.10;;;1.20;99.40;;;;;;4150105;28;20057;-92
2021/01/04 04:54:29;;;;;;;1.75;1.65;;;1.20;99.40;;;;;;4165612;28;20516;-94
2021/01/04 04:56:45;;;;;;;1.27;1.17;;;1.20;99.30;;;;;;4187176;28;20049;-92
2021/01/04 04:59:13;;;;;;;2.80;2.53;;;1.20;99.10;;;;;;4158393;28;20159;-92
2021/01/04 05:01:27;;;;;;;1.30;1.20;;;1.20;99.30;;;;;;4151961;28;20037;-92
2021/01/04 05:03:52;;;;;;;2.65;1.52;;;1.30;99.20;;;;;;4147503;28;20053;-92
2021/01/04 05:06:07;;;;;;;2.13;1.13;;;1.20;99.20;;;;;;4163429;28;20064;-92
2021/01/04 05:08:29;;;;;;;3.20;1.48;;;1.20;99.30;;;;;;4150724;28;20312;-92
2021/01/04 05:10:33;;;;;;;3.22;1.77;;;1.20;99.40;;;;;;4160341;28;20049;-92
2021/01/04 05:13:05;;;;;;;6.90;2.83;;;1.20;99.60;;;;;;4132284;28;20062;-91
2021/01/04 05:15:28;;;;;;;4.57;2.28;;;1.10;99.40;;;;;;4083848;29;20066;-93
2021/01/04 05:17:59;;;;;;;4.75;3.65;;;1.10;99.30;;;;;;4097715;29;20059;-93
2021/01/04 05:20:15;;;;;;;3.10;1.70;;;1.10;99.40;;;;;;4077779;29;20225;-92
2021/01/04 05:22:34;;;;;;;6.68;3.40;;;1.10;99.40;;;;;;4099069;28;20625;-92
2021/01/04 05:24:57;;;;;;;3.05;1.85;;;1.10;99.60;;;;;;4082883;29;20047;-93
2021/01/04 05:27:20;;;;;;;3.30;2.08;;;1.20;99.60;;;;;;4095611;29;20106;-92
2021/01/04 05:29:57;;;;;;;4.40;1.35;;;1.10;99.50;;;;;;4113150;28;20050;-92
2021/01/04 05:32:08;;;;;;;13.48;2.28;;;1.20;99.50;;;;;;4102460;28;20565;-93
2021/01/04 05:34:38;;;;;;;1.75;1.13;;;1.10;99.50;;;;;;4081154;29;20078;-92
2021/01/04 05:36:58;;;;;;;1.20;1.20;;;1.10;99.50;;;;;;4115320;28;20101;-93
2021/01/04 05:39:20;;;;;;;4.13;2.80;;;1.10;99.40;;;;;;4110642;28;20513;-93
2021/01/04 05:41:45;;;;;;;1.55;1.45;;;1.10;99.30;;;;;;4112139;28;20050;-92
2021/01/04 05:44:00;;;;;;;2.17;1.98;;;1.10;99.30;;;;;;4112995;28;20046;-92
2021/01/04 05:46:26;;;;;;;2.53;2.33;;;1.10;99.50;;;;;;4112335;28;20074;-92
2021/01/04 05:48:35;;;;;;;4.32;1.42;;;1.10;99.40;;;;;;4114114;28;20053;-93
2021/01/04 05:51:00;;;;;;;0.50;0.50;;;1.10;99.80;;;;;;4112929;28;20521;-93
2021/01/04 05:53:01;;;;;;;1.70;1.60;;;1.00;99.60;;;;;;4181497;28;20448;-93
2021/01/04 05:55:04;;;;;;;6.05;3.53;;;1.00;99.70;;;;;;4151923;28;20072;-92
2021/01/04 05:57:16;;;;;;;3.25;1.92;;;1.00;99.70;;;;;;4147901;28;20058;-92
2021/01/04 05:59:17;;;;;;;4.47;2.60;;;1.10;99.70;;;;;;4146683;28;20053;-92
2021/01/04 06:01:25;;;;;;;1.70;1.60;;;1.10;99.80;;;;;;4180423;28;20049;-92
2021/01/04 06:03:26;;;;;;;0.85;0.82;;;1.10;99.80;;;;;;4181117;28;20418;-92
2021/01/04 06:05:28;;;;;;;3.17;2.33;;;1.10;99.80;;;;;;4173745;28;20513;-94
2021/01/04 06:07:34;;;;;;;1.27;1.17;;;1.10;99.90;;;;;;4147639;28;20054;-92
2021/01/04 06:09:35;;;;;;;1.98;1.88;;;1.10;99.90;;;;;;4163984;28;20053;-92
2021/01/04 06:11:56;;;;;;;1.05;1.05;;;1.10;99.90;;;;;;4178032;28;20063;-92
2021/01/04 06:14:02;;;;;;;10.38;4.97;;;1.10;99.90;;;;;;4148578;28;20097;-92
2021/01/04 06:16:07;;;;;;;2.30;2.10;;;1.10;99.90;;;;;;4165630;28;20057;-92
2021/01/04 06:18:11;;;;;;;1.27;1.13;;;1.10;99.90;;;;;;4167917;28;20068;-93
2021/01/04 06:20:24;;;;;;;2.60;1.95;;;1.10;99.90;;;;;;4141878;28;20046;-92
2021/01/04 06:22:31;;;;;;;3.35;2.05;;;1.10;99.90;;;;;;4162972;28;20060;-94
2021/01/04 06:24:34;;;;;;;2.38;1.85;;;1.10;99.90;;;;;;4164382;28;20057;-92
2021/01/04 06:26:35;;;;;;;2.83;2.03;;;1.10;99.90;;;;;;4161047;28;20053;-92
2021/01/04 06:28:49;;;;;;;1.33;1.23;;;1.10;99.90;;;;;;4163516;28;20052;-92
2021/01/04 06:31:05;;;;;;;0.77;0.77;;;1.00;99.90;;;;;;4159908;28;20057;-93
2021/01/04 06:33:13;;;;;;;0.90;0.90;;;1.00;99.90;;;;;;4184349;28;20051;-92
2021/01/04 06:35:33;;;;;;;7.20;3.15;;;1.00;99.90;;;;;;4162723;28;20057;-92
2021/01/04 06:37:34;;;;;;;1.85;0.98;;;1.10;99.90;;;;;;4171368;28;20065;-92
2021/01/04 06:39:35;;;;;;;3.03;2.63;;;1.10;99.90;;;;;;4137314;28;20134;-93
2021/01/04 06:41:37;;;;;;;2.95;1.77;;;1.10;99.90;;;;;;4151366;28;20087;-93
2021/01/04 06:43:38;;;;;;;1.95;1.38;;;1.10;99.90;;;;;;4181437;28;20069;-92
2021/01/04 06:46:03;;;;;;;7.80;1.95;;;1.20;99.90;;;;;;4152588;28;20133;-92
2021/01/04 06:48:12;;;;;;;5.70;1.80;;;1.20;99.90;;;;;;4173453;28;20072;-92
2021/01/04 06:50:34;;;;;;;2.45;2.25;;;1.10;99.90;;;;;;4145843;28;20053;-93
2021/01/04 06:52:53;;;;;;;3.65;2.85;;;1.10;99.90;;;;;;4167591;28;20052;-91
2021/01/04 06:55:10;;;;;;;3.80;2.58;;;1.10;99.90;;;;;;4184379;28;20059;-92
2021/01/04 06:57:17;;;;;;;5.22;2.10;;;1.10;99.90;;;;;;4200271;28;20127;-93
2021/01/04 06:59:40;;;;;;;2.08;1.52;;;1.10;99.90;;;;;;4181072;28;20056;-93
2021/01/04 07:02:21;;;;;;;0.82;0.82;;;1.10;99.90;;;;;;4183871;28;20057;-91
2021/01/04 07:04:59;;;;;;;3.22;2.90;;;1.20;99.90;;;;;;4169472;28;20545;-91
2021/01/04 07:07:29;;;;;;;1.70;1.20;;;1.20;99.90;;;;;;4205596;28;20040;-91
2021/01/04 07:09:53;;;;;;;3.03;2.35;;;1.20;99.90;;;;;;4088388;29;20056;-90
2021/01/04 07:11:59;;;;;;;2.55;1.90;;;1.10;99.90;;;;;;4135900;28;20057;-92
2021/01/04 07:14:37;;;;;;;2.67;2.22;;;1.10;99.90;;;;;;4119935;28;20130;-91
2021/01/04 07:17:00;;;;;;;3.38;2.13;;;1.10;99.90;;;;;;4102123;29;20141;-91
2021/01/04 07:19:35;;;;;;;3.58;2.95;;;1.10;99.90;;;;;;4083670;29;20501;-87
2021/01/04 07:22:01;;;;;;;1.98;1.83;;;1.10;99.90;;;;;;4099146;29;20056;-87
2021/01/04 07:24:08;;;;;;;10.93;2.72;;;1.10;99.90;;;;;;4052457;29;20497;-88
2021/01/04 07:26:28;;;;;;;2.53;2.35;;;1.10;99.90;;;;;;4055627;29;20398;-82
2021/01/04 07:28:44;;;;;;;5.68;4.22;;;1.10;99.90;;;;;;4058927;29;20056;-89
2021/01/04 07:30:58;;;;;;;7.28;2.63;;;1.10;99.90;;;;;;4041346;29;20053;-88
2021/01/04 07:33:20;;;;;;;5.28;3.47;;;1.10;99.90;;;;;;4057158;29;20509;-88
2021/01/04 07:35:35;;;;;;;2.80;2.50;;;1.00;99.90;;;;;;4058962;29;20060;-89
2021/01/04 07:38:01;;;;;;;5.35;3.42;;;1.00;99.90;;;;;;4047041;29;20060;-87
2021/01/04 07:40:40;;;;;;;0.65;0.65;;;1.10;99.90;;;;;;4065202;29;20534;-86
2021/01/04 07:43:25;;;;;;;6.00;4.32;;;1.00;99.90;;;;;;4033219;29;20061;-85
2021/01/04 07:45:46;;;;;;;3.08;1.42;;;1.00;99.90;;;;;;4027523;29;20117;-84
2021/01/04 07:48:05;;;;;;;3.65;2.35;;;1.00;99.90;;;;;;4089097;29;20112;-86
2021/01/04 07:50:31;;;;;;;11.25;1.95;;;1.00;99.90;;;;;;4088814;29;20112;-86
2021/01/04 07:53:01;;;;;;;1.80;1.70;;;1.00;99.90;;;;;;4094492;28;20558;-87
2021/01/04 07:55:45;;;;;;;2.75;1.27;;;1.00;99.90;;;;;;4073875;29;20047;-90
2021/01/04 07:58:07;;;;;;;2.85;2.17;;;1.00;99.90;;;;;;4069688;29;20056;-89
2021/01/04 08:00:34;;;;;;;1.25;1.15;;;1.00;99.90;;;;;;4097619;29;20060;-89
2021/01/04 08:02:50;;;;;;;2.72;2.47;;;1.00;99.90;;;;;;4115529;28;20046;-87
2021/01/04 08:05:05;;;;;;;2.22;0.93;;;1.00;99.90;;;;;;4130722;28;20606;-87
2021/01/04 08:07:27;;;;;;;2.15;1.95;;;1.00;99.90;;;;;;4101794;28;20051;-86
2021/01/04 08:09:40;;;;;;;3.13;2.90;;;1.10;99.90;;;;;;4116308;28;20050;-84
2021/01/04 08:11:51;;;;;;;2.42;2.17;;;1.00;99.90;;;;;;4129528;28;20073;-88
2021/01/04 08:14:29;;;;;;;1.75;1.60;;;1.10;99.90;;;;;;4141937;28;20046;-88
2021/01/04 08:16:36;;;;;;;2.38;2.15;;;1.10;99.90;;;;;;4130825;28;20039;-85
2021/01/04 08:18:37;;;;;;;2.85;2.28;;;1.00;99.90;;;;;;4100608;28;20051;-87
2021/01/04 08:20:53;;;;;;;2.08;1.90;;;1.10;99.90;;;;;;4128918;28;20522;-87
2021/01/04 08:23:12;;;;;;;1.02;1.02;;;1.10;99.90;;;;;;4153286;28;20049;-88
2021/01/04 08:25:31;;;;;;;0.95;0.95;;;1.10;99.90;;;;;;4163884;28;20045;-85
2021/01/04 08:28:06;;;;;;;3.50;2.38;;;1.10;99.90;;;;;;4165498;28;20480;-86
2021/01/04 08:30:16;;;;;;;1.33;1.33;;;1.00;99.90;;;;;;4116573;28;20120;-88
2021/01/04 08:32:32;;;;;;;7.13;1.45;;;1.00;99.90;;;;;;4100721;28;20092;-88
2021/01/04 08:34:38;;;;;;;1.40;1.30;;;1.00;99.90;;;;;;4125217;28;20061;-88
2021/01/04 08:36:42;;;;;;;3.13;2.70;;;1.10;99.90;;;;;;4133200;28;20054;-88
2021/01/04 08:38:43;;;;;;;2.40;2.25;;;1.10;99.90;;;;;;4115893;28;20058;-89
2021/01/04 08:41:09;;;;;;;1.77;1.55;;;1.20;99.90;;;;;;4133046;28;20065;-88
2021/01/04 08:43:10;;;;;;;2.47;2.10;;;1.20;99.90;;;;;;4119293;28;20052;-88
2021/01/04 08:45:15;;;;;;;5.25;2.30;;;1.20;99.90;;;;;;4132267;28;20060;-87
2021/01/04 08:47:17;;;;;;;2.40;1.58;;;1.20;99.90;;;;;;4117121;28;20137;-88
2021/01/04 08:49:22;;;;;;;2.90;1.92;;;1.10;99.90;;;;;;4100803;28;20059;-89
2021/01/04 08:51:42;;;;;;;;;;;1.10;99.90;;;;;;4116384;28;20055;-89
2021/01/04 08:54:44;;;;;;;1.67;1.17;;;1.10;99.90;;;;;;4149734;28;19936;-88
2021/01/04 08:56:53;;;;;;;5.10;2.92;;;1.20;99.90;;;;;;4052596;29;20139;-87
2021/01/04 08:59:05;;;;;;;2.38;2.17;;;1.20;99.90;;;;;;4032515;29;20730;-88
2021/01/04 09:01:13;;;;;;;4.97;1.77;;;1.20;99.90;;;;;;4039299;29;20091;-88
2021/01/04 09:03:19;;;;;;;4.70;2.60;;;1.20;99.90;;;;;;4050649;29;20132;-95
2021/01/04 09:05:32;;;;;;;1.83;1.73;;;1.30;99.90;;;;;;4035968;29;20147;-90
2021/01/04 09:07:34;;;;;;;4.88;2.13;;;1.30;99.90;;;;;;4071114;29;20056;-89
2021/01/04 09:09:37;;;;;;;2.58;1.98;;;1.20;99.90;;;;;;4053463;29;20158;-90
2021/01/04 09:12:07;;;;;;;2.28;2.08;;;1.30;99.90;;;;;;4068635;29;20054;-89
2021/01/04 09:14:18;;;;;;;9.93;2.78;;;1.30;99.90;;;;;;4074665;29;20044;-90
2021/01/04 09:16:30;;;;;;;12.82;3.53;;;1.30;99.90;;;;;;4055661;29;20062;-89
2021/01/04 09:18:48;;;;;;;4.32;2.33;;;1.30;99.90;;;;;;4068785;29;20150;-89
2021/01/04 09:21:07;;;;;;;3.42;2.97;;;1.30;99.90;;;;;;4078656;29;20060;-90
2021/01/04 09:23:31;;;;;;;1.95;1.80;;;1.40;99.90;;;;;;4122778;28;20045;-90
2021/01/04 09:25:41;;;;;;;2.08;1.95;;;1.40;99.90;;;;;;4109668;28;20055;-88
2021/01/04 09:27:43;;;;;;;3.20;2.05;;;1.40;99.90;;;;;;4114529;28;20141;-90
2021/01/04 09:29:50;;;;;;;0.63;0.63;;;1.40;99.90;;;;;;4090626;28;20062;-91
2021/01/04 09:31:59;;;;;;;5.00;3.33;;;1.40;99.90;;;;;;4101431;28;20423;-89
2021/01/04 09:34:01;;;;;;;2.63;2.42;;;1.40;99.90;;;;;;4168455;28;20515;-90
2021/01/04 09:36:04;;;;;;;2.53;2.33;;;1.40;99.90;;;;;;4161136;28;20041;-89
2021/01/04 09:38:23;;;;;;;2.95;2.75;;;1.40;99.90;;;;;;4148632;28;20074;-90
2021/01/04 09:40:26;;;;;;;1.33;1.25;;;1.40;99.90;;;;;;4154998;28;20052;-88
2021/01/04 09:42:27;;;;;;;3.15;2.78;;;1.40;99.90;;;;;;4166311;28;20490;-87
2021/01/04 09:44:29;;;;;;;2.95;2.25;;;1.40;99.90;;;;;;4164248;28;20041;-86
2021/01/04 09:47:06;;;;;;;4.03;2.38;;;1.40;99.90;;;;;;4154180;28;20045;-84
2021/01/04 09:49:20;;;;;;;1.33;1.30;;;1.50;99.90;;;;;;4145999;28;20054;-87
2021/01/04 09:51:34;;;;;;;1.67;1.60;;;1.60;99.90;;;;;;4149578;28;20054;-88
2021/01/04 09:53:36;;;;;;;3.10;2.88;;;1.60;99.90;;;;;;4163678;28;20057;-88
2021/01/04 09:55:41;;;;;;;0.75;0.75;;;1.60;99.90;;;;;;4153331;28;20048;-86
2021/01/04 09:57:44;;;;;;;1.05;1.02;;;1.60;99.90;;;;;;4148090;28;20490;-87
2021/01/04 09:59:45;;;;;;;3.22;2.72;;;1.60;99.90;;;;;;4163972;28;20045;-86
2021/01/04 10:01:55;;;;;;;1.95;1.50;;;1.60;99.90;;;;;;4162779;28;20045;-91
2021/01/04 10:03:58;;;;;;;3.40;2.17;;;1.60;99.90;;;;;;4146639;28;20045;-87
2021/01/04 10:05:59;;;;;;;3.13;2.40;;;1.60;99.90;;;;;;4164137;28;20517;-90
2021/01/04 10:08:04;;;;;;;2.60;2.20;;;1.60;99.90;;;;;;4178834;28;20535;-92
2021/01/04 10:10:11;;;;;;;1.73;1.60;;;1.60;99.90;;;;;;4148181;28;20073;-91
2021/01/04 10:12:17;;;;;;;4.05;3.75;;;1.60;99.90;;;;;;4148123;28;20526;-91
2021/01/04 10:14:31;;;;;;;2.88;2.15;;;1.60;99.90;;;;;;4170353;28;20153;-86
2021/01/04 10:16:33;;;;;;;2.42;2.00;;;1.60;99.90;;;;;;4169361;28;20485;-89
2021/01/04 10:18:37;;;;;;;2.35;1.98;;;1.60;99.90;;;;;;4180813;28;20086;-89
2021/01/04 10:20:47;;;;;;;1.10;1.05;;;1.60;99.90;;;;;;4181082;28;20060;-90
2021/01/04 10:22:49;;;;;;;1.63;1.52;;;1.70;99.90;;;;;;4145083;28;20050;-88
2021/01/04 10:24:55;;;;;;;5.03;3.05;;;1.70;99.90;;;;;;4133132;28;20522;-89
2021/01/04 10:27:00;;;;;;;1.85;1.63;;;1.70;99.90;;;;;;4165272;28;20140;-90
2021/01/04 10:29:14;;;;;;;2.38;2.17;;;1.70;99.90;;;;;;4162178;28;20108;-89
2021/01/04 10:31:15;;;;;;;3.63;1.42;;;1.70;99.90;;;;;;4162961;28;20132;-89
2021/01/04 10:33:19;;;;;;;5.93;2.40;;;1.70;99.90;;;;;;4163833;28;20045;-87
2021/01/04 10:35:23;;;;;;;6.60;1.77;;;1.70;99.90;;;;;;4162590;28;20053;-88
2021/01/04 10:37:51;;;;;;;2.38;1.10;;;1.70;99.90;;;;;;4162465;28;20084;-88
2021/01/04 10:39:58;;;;;;;1.55;1.45;;;1.70;99.90;;;;;;4162207;28;20058;-87
2021/01/04 10:42:10;;;;;;;2.38;0.90;;;1.70;99.90;;;;;;4147625;28;20045;-88
2021/01/04 10:44:25;;;;;;;2.05;1.92;;;1.80;99.90;;;;;;4145112;28;20045;-88
2021/01/04 10:46:36;;;;;;;1.40;1.30;;;1.70;99.70;;;;;;4130422;28;20046;-88
2021/01/04 10:48:38;;;;;;;3.47;1.95;;;1.70;99.70;;;;;;4163082;28;20166;-87
2021/01/04 10:50:41;;;;;;;3.30;2.80;;;1.60;99.20;;;;;;4162783;28;20461;-89
2021/01/04 10:52:55;;;;;;;1.90;1.80;;;1.60;99.70;;;;;;4147662;28;20140;-90
2021/01/04 10:54:57;;;;;;;0.88;0.65;;;1.60;99.80;;;;;;4132075;28;20526;-89
2021/01/04 10:57:09;;;;;;;1.45;1.40;;;1.60;99.70;;;;;;4147631;28;20045;-88
2021/01/04 10:59:13;;;;;;;0.70;0.68;;;1.60;99.90;;;;;;4143121;28;20064;-88
2021/01/04 11:01:22;;;;;;;1.85;1.58;;;1.70;99.90;;;;;;4162012;28;20041;-89
2021/01/04 11:03:24;;;;;;;4.13;2.42;;;1.80;99.80;;;;;;4164691;28;20051;-91
2021/01/04 11:05:37;;;;;;;2.38;1.63;;;1.70;99.50;;;;;;4145986;28;20132;-91
2021/01/04 11:07:38;;;;;;;2.72;1.33;;;1.80;99.50;;;;;;4127351;28;20507;-89
2021/01/04 11:09:41;;;;;;;1.73;1.30;;;1.80;99.30;;;;;;4145902;28;20053;-84
2021/01/04 11:11:47;;;;;;;0.75;0.75;;;1.90;99.50;;;;;;4141628;28;20050;-87
2021/01/04 11:13:48;;;;;;;2.78;1.65;;;1.80;99.40;;;;;;4144824;28;20485;-88
2021/01/04 11:15:50;;;;;;;2.33;2.17;;;1.80;99.20;;;;;;4152084;28;20045;-86
2021/01/04 11:18:06;;;;;;;2.10;1.83;;;1.80;99.40;;;;;;4162615;28;20052;-88
2021/01/04 11:20:15;;;;;;;3.60;1.40;;;1.80;98.80;;;;;;4164132;28;20124;-88
2021/01/04 11:22:34;;;;;;;2.13;1.95;;;1.70;99.30;;;;;;4175333;28;20132;-84
2021/01/04 11:24:36;;;;;;;3.60;3.08;;;1.70;99.20;;;;;;4164951;28;20055;-88
2021/01/04 11:26:42;;;;;;;5.13;2.70;;;1.60;99.30;;;;;;4190113;28;20072;-91
2021/01/04 11:28:43;;;;;;;3.53;2.03;;;1.60;99.50;;;;;;4187949;28;20401;-87
2021/01/04 11:30:44;;;;;;;2.80;2.10;;;1.50;99.50;;;;;;4166865;28;20045;-85
2021/01/04 11:32:45;;;;;;;1.88;1.50;;;1.60;99.80;;;;;;4181664;28;20048;-85
2021/01/04 11:34:49;;;;;;;6.78;3.60;;;1.60;99.60;;;;;;4193485;28;20305;-86
2021/01/04 11:36:50;;;;;;;1.58;1.38;;;1.70;99.60;;;;;;4166051;28;20133;-86